Auburn, Illinois
Current Conditions -  °F | °C
As of 4:52 PM on Saturday 25 Oct 2014 (Local Time) from KSPI Reporting Station
Clear Clear  
Wind Chill: 79°   Ceiling: Unl
Heat Index: 79°   Visibility: 10mi
Dew Point: 48°   Wind: 7mph
Humidity: 34%   Direction: 320°NW
Pressure: 30"   Gusts: NA
Location:  39.59°N, 89.75°W
Report Text: KSPI 252152Z 32006KT 10SM CLR 26/09 A3000 RMK AO2 SLP156 T02610089
Loading
Personal Weather Stations






























Interactive Weather Map New forecast layout! Learn more

10-Day Weather Forecast

Advertisements
Track Severe Weather on mobile